sensor_id;sensor_type;location;lat;lon;timestamp;P1;durP1;ratioP1;P2;durP2;ratioP2
80253;SDS011;69563;37.974;23.708;2023-06-22T00:00:52;6.20;;;4.55;;
80253;SDS011;69563;37.974;23.708;2023-06-22T00:03:19;8.35;;;4.78;;
80253;SDS011;69563;37.974;23.708;2023-06-22T00:05:48;6.25;;;4.47;;
80253;SDS011;69563;37.974;23.708;2023-06-22T00:08:14;6.00;;;4.15;;
80253;SDS011;69563;37.974;23.708;2023-06-22T00:10:41;10.00;;;4.30;;
80253;SDS011;69563;37.974;23.708;2023-06-22T00:13:08;6.43;;;3.92;;
80253;SDS011;69563;37.974;23.708;2023-06-22T00:15:34;6.57;;;4.13;;
80253;SDS011;69563;37.974;23.708;2023-06-22T00:18:01;7.93;;;3.80;;
80253;SDS011;69563;37.974;23.708;2023-06-22T00:20:27;5.93;;;3.85;;
80253;SDS011;69563;37.974;23.708;2023-06-22T00:22:54;9.20;;;3.85;;
80253;SDS011;69563;37.974;23.708;2023-06-22T00:25:21;5.95;;;3.72;;
80253;SDS011;69563;37.974;23.708;2023-06-22T00:27:47;5.88;;;3.80;;
80253;SDS011;69563;37.974;23.708;2023-06-22T00:30:13;5.95;;;3.92;;
80253;SDS011;69563;37.974;23.708;2023-06-22T00:32:40;7.18;;;3.40;;
80253;SDS011;69563;37.974;23.708;2023-06-22T00:35:06;5.90;;;3.53;;
80253;SDS011;69563;37.974;23.708;2023-06-22T00:37:32;6.28;;;3.63;;
80253;SDS011;69563;37.974;23.708;2023-06-22T00:39:58;5.80;;;3.67;;
80253;SDS011;69563;37.974;23.708;2023-06-22T00:42:24;6.07;;;3.58;;
80253;SDS011;69563;37.974;23.708;2023-06-22T00:44:50;8.13;;;3.38;;
80253;SDS011;69563;37.974;23.708;2023-06-22T00:47:15;8.23;;;3.42;;
80253;SDS011;69563;37.974;23.708;2023-06-22T00:49:43;6.88;;;3.65;;
80253;SDS011;69563;37.974;23.708;2023-06-22T00:52:09;5.80;;;3.45;;
80253;SDS011;69563;37.974;23.708;2023-06-22T00:54:38;5.63;;;3.50;;
80253;SDS011;69563;37.974;23.708;2023-06-22T00:57:10;6.40;;;3.95;;
80253;SDS011;69563;37.974;23.708;2023-06-22T00:59:42;8.13;;;3.63;;
80253;SDS011;69563;37.974;23.708;2023-06-22T01:02:08;6.63;;;3.78;;
80253;SDS011;69563;37.974;23.708;2023-06-22T01:04:35;5.13;;;3.38;;
80253;SDS011;69563;37.974;23.708;2023-06-22T01:07:21;6.97;;;4.00;;
80253;SDS011;69563;37.974;23.708;2023-06-22T01:10:06;5.68;;;3.72;;
80253;SDS011;69563;37.974;23.708;2023-06-22T01:12:34;8.25;;;3.92;;
80253;SDS011;69563;37.974;23.708;2023-06-22T01:15:10;6.78;;;3.60;;
80253;SDS011;69563;37.974;23.708;2023-06-22T01:17:44;6.15;;;3.63;;
80253;SDS011;69563;37.974;23.708;2023-06-22T01:20:13;6.00;;;4.10;;
80253;SDS011;69563;37.974;23.708;2023-06-22T01:25:28;7.47;;;4.50;;
80253;SDS011;69563;37.974;23.708;2023-06-22T01:30:45;7.18;;;4.20;;
80253;SDS011;69563;37.974;23.708;2023-06-22T01:33:13;9.50;;;4.50;;
80253;SDS011;69563;37.974;23.708;2023-06-22T01:35:40;8.00;;;4.15;;
80253;SDS011;69563;37.974;23.708;2023-06-22T01:38:06;10.68;;;4.35;;
80253;SDS011;69563;37.974;23.708;2023-06-22T01:40:34;8.45;;;4.57;;
80253;SDS011;69563;37.974;23.708;2023-06-22T01:43:01;6.70;;;4.22;;
80253;SDS011;69563;37.974;23.708;2023-06-22T01:45:28;10.25;;;4.50;;
80253;SDS011;69563;37.974;23.708;2023-06-22T01:47:54;8.38;;;4.55;;
80253;SDS011;69563;37.974;23.708;2023-06-22T01:50:20;8.07;;;4.47;;
80253;SDS011;69563;37.974;23.708;2023-06-22T01:52:46;10.10;;;4.35;;
80253;SDS011;69563;37.974;23.708;2023-06-22T01:55:12;10.95;;;5.10;;
80253;SDS011;69563;37.974;23.708;2023-06-22T01:57:38;9.00;;;4.90;;
80253;SDS011;69563;37.974;23.708;2023-06-22T02:00:05;8.02;;;4.50;;
80253;SDS011;69563;37.974;23.708;2023-06-22T02:05:25;8.48;;;5.00;;
80253;SDS011;69563;37.974;23.708;2023-06-22T02:08:09;9.38;;;4.95;;
80253;SDS011;69563;37.974;23.708;2023-06-22T02:10:38;8.60;;;4.80;;
80253;SDS011;69563;37.974;23.708;2023-06-22T02:13:06;6.65;;;4.13;;
80253;SDS011;69563;37.974;23.708;2023-06-22T02:15:34;10.00;;;4.40;;
80253;SDS011;69563;37.974;23.708;2023-06-22T02:18:00;8.43;;;4.75;;
80253;SDS011;69563;37.974;23.708;2023-06-22T02:20:26;10.38;;;5.03;;
80253;SDS011;69563;37.974;23.708;2023-06-22T02:22:52;9.02;;;4.70;;
80253;SDS011;69563;37.974;23.708;2023-06-22T02:25:17;10.48;;;5.00;;
80253;SDS011;69563;37.974;23.708;2023-06-22T02:27:44;11.38;;;5.07;;
80253;SDS011;69563;37.974;23.708;2023-06-22T02:30:10;8.27;;;4.88;;
80253;SDS011;69563;37.974;23.708;2023-06-22T02:32:37;7.53;;;4.47;;
80253;SDS011;69563;37.974;23.708;2023-06-22T02:35:07;7.35;;;4.32;;
80253;SDS011;69563;37.974;23.708;2023-06-22T02:37:33;6.35;;;4.22;;
80253;SDS011;69563;37.974;23.708;2023-06-22T02:40:01;7.85;;;4.93;;
80253;SDS011;69563;37.974;23.708;2023-06-22T02:42:28;9.00;;;4.75;;
80253;SDS011;69563;37.974;23.708;2023-06-22T02:44:53;8.65;;;4.57;;
80253;SDS011;69563;37.974;23.708;2023-06-22T02:47:19;8.50;;;5.00;;
80253;SDS011;69563;37.974;23.708;2023-06-22T02:49:45;6.85;;;4.40;;
80253;SDS011;69563;37.974;23.708;2023-06-22T02:52:11;9.38;;;5.10;;
80253;SDS011;69563;37.974;23.708;2023-06-22T02:54:37;9.05;;;4.70;;
80253;SDS011;69563;37.974;23.708;2023-06-22T02:57:03;8.20;;;4.60;;
80253;SDS011;69563;37.974;23.708;2023-06-22T02:59:29;10.00;;;4.63;;
80253;SDS011;69563;37.974;23.708;2023-06-22T03:01:54;9.20;;;4.57;;
80253;SDS011;69563;37.974;23.708;2023-06-22T03:04:20;8.45;;;4.47;;
80253;SDS011;69563;37.974;23.708;2023-06-22T03:06:46;9.48;;;4.50;;
80253;SDS011;69563;37.974;23.708;2023-06-22T03:09:15;7.88;;;4.78;;
80253;SDS011;69563;37.974;23.708;2023-06-22T03:11:41;11.93;;;5.07;;
80253;SDS011;69563;37.974;23.708;2023-06-22T03:14:07;9.23;;;4.57;;
80253;SDS011;69563;37.974;23.708;2023-06-22T03:16:33;7.70;;;5.07;;
80253;SDS011;69563;37.974;23.708;2023-06-22T03:18:59;11.05;;;4.57;;
80253;SDS011;69563;37.974;23.708;2023-06-22T03:21:27;11.10;;;5.18;;
80253;SDS011;69563;37.974;23.708;2023-06-22T03:23:53;9.55;;;5.10;;
80253;SDS011;69563;37.974;23.708;2023-06-22T03:26:19;9.30;;;4.82;;
80253;SDS011;69563;37.974;23.708;2023-06-22T03:28:45;9.00;;;4.93;;
80253;SDS011;69563;37.974;23.708;2023-06-22T03:31:11;7.13;;;4.72;;
80253;SDS011;69563;37.974;23.708;2023-06-22T03:33:37;7.75;;;4.78;;
80253;SDS011;69563;37.974;23.708;2023-06-22T03:36:03;10.95;;;5.18;;
80253;SDS011;69563;37.974;23.708;2023-06-22T03:38:29;8.80;;;4.93;;
80253;SDS011;69563;37.974;23.708;2023-06-22T03:40:55;9.80;;;4.80;;
80253;SDS011;69563;37.974;23.708;2023-06-22T03:43:20;9.40;;;4.95;;
80253;SDS011;69563;37.974;23.708;2023-06-22T03:45:46;10.63;;;5.10;;
80253;SDS011;69563;37.974;23.708;2023-06-22T03:48:12;9.43;;;5.03;;
80253;SDS011;69563;37.974;23.708;2023-06-22T03:50:38;12.20;;;5.28;;
80253;SDS011;69563;37.974;23.708;2023-06-22T03:53:03;10.30;;;4.78;;
80253;SDS011;69563;37.974;23.708;2023-06-22T03:55:29;8.68;;;4.55;;
80253;SDS011;69563;37.974;23.708;2023-06-22T03:57:55;13.45;;;4.70;;
80253;SDS011;69563;37.974;23.708;2023-06-22T04:00:22;11.95;;;5.18;;
80253;SDS011;69563;37.974;23.708;2023-06-22T04:02:48;11.18;;;4.85;;
80253;SDS011;69563;37.974;23.708;2023-06-22T04:05:14;10.73;;;5.68;;
80253;SDS011;69563;37.974;23.708;2023-06-22T04:07:43;11.20;;;4.95;;
80253;SDS011;69563;37.974;23.708;2023-06-22T04:10:09;9.10;;;4.70;;
80253;SDS011;69563;37.974;23.708;2023-06-22T04:12:35;10.43;;;4.80;;
80253;SDS011;69563;37.974;23.708;2023-06-22T04:15:01;11.60;;;4.95;;
80253;SDS011;69563;37.974;23.708;2023-06-22T04:17:27;10.50;;;5.05;;
80253;SDS011;69563;37.974;23.708;2023-06-22T04:19:52;8.57;;;4.82;;
80253;SDS011;69563;37.974;23.708;2023-06-22T04:22:18;8.75;;;4.25;;
80253;SDS011;69563;37.974;23.708;2023-06-22T04:24:44;9.35;;;4.53;;
80253;SDS011;69563;37.974;23.708;2023-06-22T04:27:10;8.65;;;4.63;;
80253;SDS011;69563;37.974;23.708;2023-06-22T04:29:35;9.00;;;4.30;;
80253;SDS011;69563;37.974;23.708;2023-06-22T04:32:03;8.98;;;4.45;;
80253;SDS011;69563;37.974;23.708;2023-06-22T04:34:30;9.40;;;4.60;;
80253;SDS011;69563;37.974;23.708;2023-06-22T04:36:56;9.38;;;4.60;;
80253;SDS011;69563;37.974;23.708;2023-06-22T04:39:22;7.45;;;4.82;;
80253;SDS011;69563;37.974;23.708;2023-06-22T04:41:49;11.75;;;4.40;;
80253;SDS011;69563;37.974;23.708;2023-06-22T04:44:16;9.63;;;4.20;;
80253;SDS011;69563;37.974;23.708;2023-06-22T04:46:52;10.20;;;4.50;;
80253;SDS011;69563;37.974;23.708;2023-06-22T04:49:24;9.05;;;4.18;;
80253;SDS011;69563;37.974;23.708;2023-06-22T04:52:01;11.57;;;4.57;;
80253;SDS011;69563;37.974;23.708;2023-06-22T04:54:28;9.05;;;4.00;;
80253;SDS011;69563;37.974;23.708;2023-06-22T04:56:54;9.35;;;4.35;;
80253;SDS011;69563;37.974;23.708;2023-06-22T04:59:23;11.10;;;4.25;;
80253;SDS011;69563;37.974;23.708;2023-06-22T05:01:53;10.25;;;4.20;;
80253;SDS011;69563;37.974;23.708;2023-06-22T05:04:23;7.75;;;4.10;;
80253;SDS011;69563;37.974;23.708;2023-06-22T05:06:50;11.27;;;4.65;;
80253;SDS011;69563;37.974;23.708;2023-06-22T05:09:17;14.80;;;4.72;;
80253;SDS011;69563;37.974;23.708;2023-06-22T05:11:44;10.25;;;5.00;;
80253;SDS011;69563;37.974;23.708;2023-06-22T05:14:10;12.35;;;4.88;;
80253;SDS011;69563;37.974;23.708;2023-06-22T05:16:36;13.23;;;5.05;;
80253;SDS011;69563;37.974;23.708;2023-06-22T05:19:02;18.73;;;5.03;;
80253;SDS011;69563;37.974;23.708;2023-06-22T05:21:29;11.23;;;4.80;;
80253;SDS011;69563;37.974;23.708;2023-06-22T05:23:55;10.93;;;4.22;;
80253;SDS011;69563;37.974;23.708;2023-06-22T05:26:25;9.13;;;4.10;;
80253;SDS011;69563;37.974;23.708;2023-06-22T05:28:52;10.85;;;3.63;;
80253;SDS011;69563;37.974;23.708;2023-06-22T05:31:18;7.60;;;3.75;;
80253;SDS011;69563;37.974;23.708;2023-06-22T05:33:47;10.02;;;3.65;;
80253;SDS011;69563;37.974;23.708;2023-06-22T05:36:14;10.25;;;3.60;;
80253;SDS011;69563;37.974;23.708;2023-06-22T05:38:41;7.28;;;3.33;;
80253;SDS011;69563;37.974;23.708;2023-06-22T05:41:07;7.78;;;3.42;;
80253;SDS011;69563;37.974;23.708;2023-06-22T05:43:33;10.15;;;3.40;;
80253;SDS011;69563;37.974;23.708;2023-06-22T05:45:59;7.50;;;3.30;;
80253;SDS011;69563;37.974;23.708;2023-06-22T05:48:26;7.22;;;3.30;;
80253;SDS011;69563;37.974;23.708;2023-06-22T05:50:52;6.70;;;3.30;;
80253;SDS011;69563;37.974;23.708;2023-06-22T05:53:18;7.50;;;3.20;;
80253;SDS011;69563;37.974;23.708;2023-06-22T05:55:43;6.25;;;3.65;;
80253;SDS011;69563;37.974;23.708;2023-06-22T05:58:11;5.82;;;3.38;;
80253;SDS011;69563;37.974;23.708;2023-06-22T06:00:38;8.23;;;3.42;;
80253;SDS011;69563;37.974;23.708;2023-06-22T06:03:04;5.32;;;3.50;;
80253;SDS011;69563;37.974;23.708;2023-06-22T06:05:31;6.50;;;3.17;;
80253;SDS011;69563;37.974;23.708;2023-06-22T06:07:57;8.02;;;3.10;;
80253;SDS011;69563;37.974;23.708;2023-06-22T06:10:23;5.95;;;3.38;;
80253;SDS011;69563;37.974;23.708;2023-06-22T06:12:50;7.82;;;3.33;;
80253;SDS011;69563;37.974;23.708;2023-06-22T06:15:15;4.05;;;2.88;;
80253;SDS011;69563;37.974;23.708;2023-06-22T06:17:48;4.72;;;2.85;;
80253;SDS011;69563;37.974;23.708;2023-06-22T06:20:17;7.28;;;3.30;;
80253;SDS011;69563;37.974;23.708;2023-06-22T06:22:45;6.70;;;3.40;;
80253;SDS011;69563;37.974;23.708;2023-06-22T06:25:10;5.82;;;3.05;;
80253;SDS011;69563;37.974;23.708;2023-06-22T06:27:44;5.55;;;3.17;;
80253;SDS011;69563;37.974;23.708;2023-06-22T06:30:12;6.23;;;3.00;;
80253;SDS011;69563;37.974;23.708;2023-06-22T06:32:39;6.03;;;3.30;;
80253;SDS011;69563;37.974;23.708;2023-06-22T06:35:06;5.05;;;3.20;;
80253;SDS011;69563;37.974;23.708;2023-06-22T06:37:35;6.80;;;3.13;;
80253;SDS011;69563;37.974;23.708;2023-06-22T06:40:03;6.53;;;3.50;;
80253;SDS011;69563;37.974;23.708;2023-06-22T06:42:30;6.97;;;3.47;;
80253;SDS011;69563;37.974;23.708;2023-06-22T06:44:56;6.22;;;3.50;;
80253;SDS011;69563;37.974;23.708;2023-06-22T06:47:22;6.20;;;3.65;;
80253;SDS011;69563;37.974;23.708;2023-06-22T06:49:48;4.75;;;3.42;;
80253;SDS011;69563;37.974;23.708;2023-06-22T06:52:13;5.82;;;3.60;;
80253;SDS011;69563;37.974;23.708;2023-06-22T06:54:39;5.22;;;3.70;;
80253;SDS011;69563;37.974;23.708;2023-06-22T06:57:07;5.10;;;3.55;;
80253;SDS011;69563;37.974;23.708;2023-06-22T06:59:35;5.03;;;3.47;;
80253;SDS011;69563;37.974;23.708;2023-06-22T07:02:01;6.03;;;3.28;;
80253;SDS011;69563;37.974;23.708;2023-06-22T07:04:27;6.30;;;3.55;;
80253;SDS011;69563;37.974;23.708;2023-06-22T07:06:52;7.20;;;3.42;;
80253;SDS011;69563;37.974;23.708;2023-06-22T07:09:18;6.45;;;3.53;;
80253;SDS011;69563;37.974;23.708;2023-06-22T07:11:44;6.95;;;4.07;;
80253;SDS011;69563;37.974;23.708;2023-06-22T07:14:10;6.15;;;3.85;;
80253;SDS011;69563;37.974;23.708;2023-06-22T07:16:35;7.70;;;3.80;;
80253;SDS011;69563;37.974;23.708;2023-06-22T07:19:02;6.35;;;3.70;;
80253;SDS011;69563;37.974;23.708;2023-06-22T07:21:28;11.07;;;3.70;;
80253;SDS011;69563;37.974;23.708;2023-06-22T07:23:53;5.72;;;3.95;;
80253;SDS011;69563;37.974;23.708;2023-06-22T07:26:20;6.30;;;3.60;;
80253;SDS011;69563;37.974;23.708;2023-06-22T07:28:45;5.03;;;3.67;;
80253;SDS011;69563;37.974;23.708;2023-06-22T07:31:11;4.82;;;3.72;;
80253;SDS011;69563;37.974;23.708;2023-06-22T07:33:37;7.68;;;3.88;;
80253;SDS011;69563;37.974;23.708;2023-06-22T07:36:02;4.90;;;3.28;;
80253;SDS011;69563;37.974;23.708;2023-06-22T07:38:32;7.47;;;3.70;;
80253;SDS011;69563;37.974;23.708;2023-06-22T07:41:00;5.20;;;3.42;;
80253;SDS011;69563;37.974;23.708;2023-06-22T07:43:26;5.32;;;3.30;;
80253;SDS011;69563;37.974;23.708;2023-06-22T07:45:51;9.18;;;3.33;;
80253;SDS011;69563;37.974;23.708;2023-06-22T07:48:19;9.18;;;3.42;;
80253;SDS011;69563;37.974;23.708;2023-06-22T07:50:46;9.02;;;3.22;;
80253;SDS011;69563;37.974;23.708;2023-06-22T07:53:11;6.28;;;3.50;;
80253;SDS011;69563;37.974;23.708;2023-06-22T07:55:37;6.75;;;3.30;;
80253;SDS011;69563;37.974;23.708;2023-06-22T07:58:03;4.93;;;3.40;;
80253;SDS011;69563;37.974;23.708;2023-06-22T08:00:28;9.27;;;3.80;;
80253;SDS011;69563;37.974;23.708;2023-06-22T08:02:54;6.40;;;3.30;;
80253;SDS011;69563;37.974;23.708;2023-06-22T08:05:20;5.97;;;3.30;;
80253;SDS011;69563;37.974;23.708;2023-06-22T08:07:46;4.60;;;3.28;;
80253;SDS011;69563;37.974;23.708;2023-06-22T08:10:11;5.25;;;3.75;;
80253;SDS011;69563;37.974;23.708;2023-06-22T08:12:38;5.03;;;3.55;;
80253;SDS011;69563;37.974;23.708;2023-06-22T08:15:04;5.55;;;3.65;;
80253;SDS011;69563;37.974;23.708;2023-06-22T08:17:31;5.65;;;3.42;;
80253;SDS011;69563;37.974;23.708;2023-06-22T08:19:56;6.28;;;3.90;;
80253;SDS011;69563;37.974;23.708;2023-06-22T08:22:22;6.82;;;3.95;;
80253;SDS011;69563;37.974;23.708;2023-06-22T08:24:48;6.50;;;3.70;;
80253;SDS011;69563;37.974;23.708;2023-06-22T08:27:14;6.38;;;3.45;;
80253;SDS011;69563;37.974;23.708;2023-06-22T08:29:43;7.75;;;3.58;;
80253;SDS011;69563;37.974;23.708;2023-06-22T08:32:10;6.50;;;3.72;;
80253;SDS011;69563;37.974;23.708;2023-06-22T08:34:36;5.60;;;3.70;;
80253;SDS011;69563;37.974;23.708;2023-06-22T08:37:05;6.00;;;3.80;;
80253;SDS011;69563;37.974;23.708;2023-06-22T08:39:31;5.93;;;3.72;;
80253;SDS011;69563;37.974;23.708;2023-06-22T08:41:58;7.28;;;3.67;;
80253;SDS011;69563;37.974;23.708;2023-06-22T08:44:23;6.47;;;3.65;;
80253;SDS011;69563;37.974;23.708;2023-06-22T08:46:49;6.40;;;3.53;;
80253;SDS011;69563;37.974;23.708;2023-06-22T08:49:15;4.80;;;3.40;;
80253;SDS011;69563;37.974;23.708;2023-06-22T08:51:40;6.88;;;3.63;;
80253;SDS011;69563;37.974;23.708;2023-06-22T08:54:06;7.22;;;3.75;;
80253;SDS011;69563;37.974;23.708;2023-06-22T08:56:32;4.70;;;3.80;;
80253;SDS011;69563;37.974;23.708;2023-06-22T08:58:57;7.28;;;3.85;;
80253;SDS011;69563;37.974;23.708;2023-06-22T09:01:23;5.40;;;3.85;;
80253;SDS011;69563;37.974;23.708;2023-06-22T09:03:49;6.72;;;3.50;;
80253;SDS011;69563;37.974;23.708;2023-06-22T09:06:19;5.05;;;3.55;;
80253;SDS011;69563;37.974;23.708;2023-06-22T09:08:46;5.03;;;3.65;;
80253;SDS011;69563;37.974;23.708;2023-06-22T09:11:12;6.88;;;3.60;;
80253;SDS011;69563;37.974;23.708;2023-06-22T09:13:38;6.68;;;3.45;;
80253;SDS011;69563;37.974;23.708;2023-06-22T09:16:04;4.85;;;3.78;;
80253;SDS011;69563;37.974;23.708;2023-06-22T09:18:30;7.43;;;3.95;;
80253;SDS011;69563;37.974;23.708;2023-06-22T09:20:55;7.60;;;3.97;;
80253;SDS011;69563;37.974;23.708;2023-06-22T09:23:21;7.25;;;4.20;;
80253;SDS011;69563;37.974;23.708;2023-06-22T09:25:47;5.78;;;4.25;;
80253;SDS011;69563;37.974;23.708;2023-06-22T09:28:13;5.60;;;4.22;;
80253;SDS011;69563;37.974;23.708;2023-06-22T09:30:40;7.10;;;4.30;;
80253;SDS011;69563;37.974;23.708;2023-06-22T09:33:07;6.13;;;4.65;;
80253;SDS011;69563;37.974;23.708;2023-06-22T09:35:33;6.20;;;4.20;;
80253;SDS011;69563;37.974;23.708;2023-06-22T09:37:59;4.90;;;4.15;;
80253;SDS011;69563;37.974;23.708;2023-06-22T09:40:25;5.32;;;4.30;;
80253;SDS011;69563;37.974;23.708;2023-06-22T09:42:50;6.25;;;4.20;;
80253;SDS011;69563;37.974;23.708;2023-06-22T09:45:17;9.05;;;4.43;;
80253;SDS011;69563;37.974;23.708;2023-06-22T09:47:42;7.18;;;4.20;;
80253;SDS011;69563;37.974;23.708;2023-06-22T09:50:08;8.02;;;4.10;;
80253;SDS011;69563;37.974;23.708;2023-06-22T09:52:34;7.65;;;5.15;;
80253;SDS011;69563;37.974;23.708;2023-06-22T09:55:00;6.75;;;4.68;;
80253;SDS011;69563;37.974;23.708;2023-06-22T09:57:25;5.82;;;4.32;;
80253;SDS011;69563;37.974;23.708;2023-06-22T09:59:51;6.43;;;4.13;;
80253;SDS011;69563;37.974;23.708;2023-06-22T10:02:16;6.15;;;4.30;;
80253;SDS011;69563;37.974;23.708;2023-06-22T10:04:42;7.47;;;4.30;;
80253;SDS011;69563;37.974;23.708;2023-06-22T10:07:08;7.20;;;4.32;;
80253;SDS011;69563;37.974;23.708;2023-06-22T10:09:34;5.78;;;3.85;;
80253;SDS011;69563;37.974;23.708;2023-06-22T10:11:59;7.07;;;4.20;;
80253;SDS011;69563;37.974;23.708;2023-06-22T10:14:25;6.07;;;4.07;;
80253;SDS011;69563;37.974;23.708;2023-06-22T10:16:52;6.95;;;4.57;;
80253;SDS011;69563;37.974;23.708;2023-06-22T10:19:18;7.03;;;4.43;;
80253;SDS011;69563;37.974;23.708;2023-06-22T10:21:44;6.22;;;4.20;;
80253;SDS011;69563;37.974;23.708;2023-06-22T10:24:10;7.50;;;4.03;;
80253;SDS011;69563;37.974;23.708;2023-06-22T10:26:35;6.97;;;4.13;;
80253;SDS011;69563;37.974;23.708;2023-06-22T10:29:02;5.75;;;4.55;;
80253;SDS011;69563;37.974;23.708;2023-06-22T10:31:28;5.85;;;4.28;;
80253;SDS011;69563;37.974;23.708;2023-06-22T10:33:54;5.95;;;4.15;;
80253;SDS011;69563;37.974;23.708;2023-06-22T10:36:20;5.50;;;4.50;;
80253;SDS011;69563;37.974;23.708;2023-06-22T10:38:47;5.45;;;4.20;;
80253;SDS011;69563;37.974;23.708;2023-06-22T10:41:13;9.02;;;4.45;;
80253;SDS011;69563;37.974;23.708;2023-06-22T10:43:39;7.15;;;4.10;;
80253;SDS011;69563;37.974;23.708;2023-06-22T10:46:04;6.32;;;4.18;;
80253;SDS011;69563;37.974;23.708;2023-06-22T10:48:31;7.80;;;4.22;;
80253;SDS011;69563;37.974;23.708;2023-06-22T10:50:57;6.45;;;3.95;;
80253;SDS011;69563;37.974;23.708;2023-06-22T10:53:25;6.93;;;4.20;;
80253;SDS011;69563;37.974;23.708;2023-06-22T10:55:57;9.02;;;4.13;;
80253;SDS011;69563;37.974;23.708;2023-06-22T10:58:23;7.68;;;4.10;;
80253;SDS011;69563;37.974;23.708;2023-06-22T11:00:49;8.00;;;4.15;;
80253;SDS011;69563;37.974;23.708;2023-06-22T11:03:15;7.10;;;4.20;;
80253;SDS011;69563;37.974;23.708;2023-06-22T11:05:40;8.18;;;3.83;;
80253;SDS011;69563;37.974;23.708;2023-06-22T11:08:06;5.43;;;3.80;;
80253;SDS011;69563;37.974;23.708;2023-06-22T11:10:32;5.95;;;4.00;;
80253;SDS011;69563;37.974;23.708;2023-06-22T11:12:58;5.85;;;3.63;;
80253;SDS011;69563;37.974;23.708;2023-06-22T11:15:24;8.70;;;3.80;;
80253;SDS011;69563;37.974;23.708;2023-06-22T11:17:50;4.90;;;3.67;;
80253;SDS011;69563;37.974;23.708;2023-06-22T11:20:16;6.47;;;3.88;;
80253;SDS011;69563;37.974;23.708;2023-06-22T11:22:41;7.78;;;4.15;;
80253;SDS011;69563;37.974;23.708;2023-06-22T11:25:07;5.45;;;4.22;;
80253;SDS011;69563;37.974;23.708;2023-06-22T11:27:34;5.03;;;4.22;;
80253;SDS011;69563;37.974;23.708;2023-06-22T11:29:59;5.88;;;4.18;;
80253;SDS011;69563;37.974;23.708;2023-06-22T11:32:25;5.20;;;4.18;;
80253;SDS011;69563;37.974;23.708;2023-06-22T11:34:51;5.78;;;4.10;;
80253;SDS011;69563;37.974;23.708;2023-06-22T11:37:17;6.78;;;4.38;;
80253;SDS011;69563;37.974;23.708;2023-06-22T11:39:43;9.50;;;4.47;;
80253;SDS011;69563;37.974;23.708;2023-06-22T11:42:09;8.82;;;4.50;;
80253;SDS011;69563;37.974;23.708;2023-06-22T11:44:35;10.32;;;4.18;;
80253;SDS011;69563;37.974;23.708;2023-06-22T11:47:01;8.13;;;4.53;;
80253;SDS011;69563;37.974;23.708;2023-06-22T11:49:29;9.27;;;4.20;;
80253;SDS011;69563;37.974;23.708;2023-06-22T11:51:57;7.40;;;4.00;;
80253;SDS011;69563;37.974;23.708;2023-06-22T11:54:23;6.82;;;4.18;;
80253;SDS011;69563;37.974;23.708;2023-06-22T11:56:49;6.10;;;4.03;;
80253;SDS011;69563;37.974;23.708;2023-06-22T11:59:14;6.57;;;4.70;;
80253;SDS011;69563;37.974;23.708;2023-06-22T12:01:40;7.68;;;4.55;;
80253;SDS011;69563;37.974;23.708;2023-06-22T12:04:06;10.02;;;4.68;;
80253;SDS011;69563;37.974;23.708;2023-06-22T12:06:32;5.10;;;4.38;;
80253;SDS011;69563;37.974;23.708;2023-06-22T12:08:58;8.13;;;4.20;;
80253;SDS011;69563;37.974;23.708;2023-06-22T12:11:24;5.05;;;4.00;;
80253;SDS011;69563;37.974;23.708;2023-06-22T12:13:49;5.05;;;3.85;;
80253;SDS011;69563;37.974;23.708;2023-06-22T12:16:15;5.30;;;4.10;;
80253;SDS011;69563;37.974;23.708;2023-06-22T12:18:41;6.57;;;4.05;;
80253;SDS011;69563;37.974;23.708;2023-06-22T12:21:07;6.82;;;4.13;;
80253;SDS011;69563;37.974;23.708;2023-06-22T12:23:32;6.32;;;4.30;;
80253;SDS011;69563;37.974;23.708;2023-06-22T12:25:58;8.25;;;4.43;;
80253;SDS011;69563;37.974;23.708;2023-06-22T12:28:25;6.10;;;4.30;;
80253;SDS011;69563;37.974;23.708;2023-06-22T12:30:50;8.00;;;4.45;;
80253;SDS011;69563;37.974;23.708;2023-06-22T12:33:16;6.22;;;4.53;;
80253;SDS011;69563;37.974;23.708;2023-06-22T12:35:43;4.97;;;4.03;;
80253;SDS011;69563;37.974;23.708;2023-06-22T12:38:10;6.38;;;4.10;;
80253;SDS011;69563;37.974;23.708;2023-06-22T12:40:36;6.60;;;3.90;;
80253;SDS011;69563;37.974;23.708;2023-06-22T12:43:01;6.20;;;3.92;;
80253;SDS011;69563;37.974;23.708;2023-06-22T12:45:27;5.95;;;4.43;;
80253;SDS011;69563;37.974;23.708;2023-06-22T12:47:56;5.65;;;4.18;;
80253;SDS011;69563;37.974;23.708;2023-06-22T12:50:22;5.03;;;4.10;;
80253;SDS011;69563;37.974;23.708;2023-06-22T12:52:48;5.55;;;3.63;;
80253;SDS011;69563;37.974;23.708;2023-06-22T12:55:13;7.35;;;4.30;;
80253;SDS011;69563;37.974;23.708;2023-06-22T12:57:39;6.15;;;4.15;;
80253;SDS011;69563;37.974;23.708;2023-06-22T13:00:05;8.43;;;4.13;;
80253;SDS011;69563;37.974;23.708;2023-06-22T13:02:33;7.70;;;4.00;;
80253;SDS011;69563;37.974;23.708;2023-06-22T13:05:00;6.15;;;3.92;;
80253;SDS011;69563;37.974;23.708;2023-06-22T13:07:27;5.32;;;3.80;;
80253;SDS011;69563;37.974;23.708;2023-06-22T13:09:52;5.03;;;3.30;;
80253;SDS011;69563;37.974;23.708;2023-06-22T13:12:19;6.55;;;3.63;;
80253;SDS011;69563;37.974;23.708;2023-06-22T13:14:45;4.90;;;3.80;;
80253;SDS011;69563;37.974;23.708;2023-06-22T13:17:12;4.80;;;3.60;;
80253;SDS011;69563;37.974;23.708;2023-06-22T13:19:39;5.60;;;4.20;;
80253;SDS011;69563;37.974;23.708;2023-06-22T13:22:05;6.43;;;4.13;;
80253;SDS011;69563;37.974;23.708;2023-06-22T13:24:50;5.40;;;3.95;;
80253;SDS011;69563;37.974;23.708;2023-06-22T13:27:17;5.93;;;3.85;;
80253;SDS011;69563;37.974;23.708;2023-06-22T13:29:42;5.20;;;4.20;;
80253;SDS011;69563;37.974;23.708;2023-06-22T13:32:08;5.85;;;4.20;;
80253;SDS011;69563;37.974;23.708;2023-06-22T13:34:42;5.53;;;4.25;;
80253;SDS011;69563;37.974;23.708;2023-06-22T13:37:10;4.85;;;4.15;;
80253;SDS011;69563;37.974;23.708;2023-06-22T13:39:39;4.72;;;3.92;;
80253;SDS011;69563;37.974;23.708;2023-06-22T13:42:04;4.88;;;4.15;;
80253;SDS011;69563;37.974;23.708;2023-06-22T13:44:30;4.60;;;3.70;;
80253;SDS011;69563;37.974;23.708;2023-06-22T13:46:59;4.70;;;3.85;;
80253;SDS011;69563;37.974;23.708;2023-06-22T13:49:35;6.43;;;3.78;;
80253;SDS011;69563;37.974;23.708;2023-06-22T13:52:01;4.82;;;3.78;;
80253;SDS011;69563;37.974;23.708;2023-06-22T13:54:28;7.10;;;4.35;;
80253;SDS011;69563;37.974;23.708;2023-06-22T13:56:56;5.50;;;4.15;;
80253;SDS011;69563;37.974;23.708;2023-06-22T13:59:26;7.63;;;3.80;;
80253;SDS011;69563;37.974;23.708;2023-06-22T14:01:53;5.88;;;4.18;;
80253;SDS011;69563;37.974;23.708;2023-06-22T14:04:25;4.57;;;3.67;;
80253;SDS011;69563;37.974;23.708;2023-06-22T14:06:51;8.25;;;4.20;;
80253;SDS011;69563;37.974;23.708;2023-06-22T14:12:47;6.82;;;4.38;;
80253;SDS011;69563;37.974;23.708;2023-06-22T14:15:13;5.32;;;4.00;;
80253;SDS011;69563;37.974;23.708;2023-06-22T14:17:38;6.30;;;4.07;;
80253;SDS011;69563;37.974;23.708;2023-06-22T14:20:04;5.55;;;4.53;;
80253;SDS011;69563;37.974;23.708;2023-06-22T14:22:32;5.30;;;4.22;;
80253;SDS011;69563;37.974;23.708;2023-06-22T14:25:00;4.93;;;3.92;;
80253;SDS011;69563;37.974;23.708;2023-06-22T14:27:27;6.00;;;4.07;;
80253;SDS011;69563;37.974;23.708;2023-06-22T14:29:53;5.28;;;3.92;;
80253;SDS011;69563;37.974;23.708;2023-06-22T14:32:19;4.93;;;4.30;;
80253;SDS011;69563;37.974;23.708;2023-06-22T14:34:44;4.82;;;3.83;;
80253;SDS011;69563;37.974;23.708;2023-06-22T14:37:10;6.43;;;4.20;;
80253;SDS011;69563;37.974;23.708;2023-06-22T14:39:37;7.35;;;3.80;;
80253;SDS011;69563;37.974;23.708;2023-06-22T14:42:04;5.68;;;4.00;;